Time;durP1;ratioP1;P1;durP2;ratioP2;P2;SDS_P1;SDS_P2;PMS_P1;PMS_P2;Temp;Humidity;BMP_temperature;BMP_pressure;BME280_temperature;BME280_humidity;BME280_pressure;Samples;Min_cycle;Max_cycle;Signal;HPM_P1;HPM_P2
2024/01/22 00:02:00;;;;;;;3.57;3.23;;;1.80;1.00;;;;;;5083317;28;20034;-73
2024/01/22 00:04:27;;;;;;;4.33;2.97;;;1.80;1.00;;;;;;5101723;28;20475;-74
2024/01/22 00:06:53;;;;;;;3.40;3.03;;;1.80;1.00;;;;;;5082553;28;20493;-74
2024/01/22 00:09:19;;;;;;;7.50;3.60;;;1.80;1.00;;;;;;5085031;28;20028;-73
2024/01/22 00:11:45;;;;;;;3.77;3.20;;;1.80;1.00;;;;;;5084135;28;20038;-73
2024/01/22 00:14:11;;;;;;;3.23;2.90;;;1.70;1.00;;;;;;5089773;28;20023;-73
2024/01/22 00:16:40;;;;;;;4.23;2.80;;;1.70;1.00;;;;;;5102958;28;20099;-73
2024/01/22 00:19:08;;;;;;;3.10;2.90;;;1.70;1.00;;;;;;5081808;28;20395;-74
2024/01/22 00:21:34;;;;;;;4.20;3.40;;;1.80;1.00;;;;;;5101921;28;20061;-73
2024/01/22 00:24:00;;;;;;;3.77;2.60;;;1.80;1.00;;;;;;5100919;28;20105;-74
2024/01/22 00:26:26;;;;;;;2.87;2.67;;;1.80;1.00;;;;;;5103219;28;20502;-74
2024/01/22 00:28:52;;;;;;;2.97;2.77;;;1.80;1.00;;;;;;5101057;28;20632;-73
2024/01/22 00:31:17;;;;;;;2.43;2.30;;;1.80;1.00;;;;;;5083381;28;20103;-73
2024/01/22 00:33:44;;;;;;;2.60;2.40;;;1.80;1.00;;;;;;5081970;28;20380;-74
2024/01/22 00:36:15;;;;;;;2.43;2.23;;;1.80;1.00;;;;;;5102321;28;20019;-73
2024/01/22 00:38:42;;;;;;;2.42;2.30;;;1.80;1.00;;;;;;5100318;28;20107;-73
2024/01/22 00:41:08;;;;;;;2.60;2.40;;;1.80;1.00;;;;;;5084015;28;20031;-74
2024/01/22 00:43:34;;;;;;;2.97;2.50;;;1.80;1.00;;;;;;5099662;28;20086;-74
2024/01/22 00:46:01;;;;;;;2.20;2.00;;;1.80;1.00;;;;;;5091334;28;20494;-74
2024/01/22 00:48:27;;;;;;;2.20;2.10;;;1.80;1.00;;;;;;5100753;28;20048;-74
2024/01/22 00:50:53;;;;;;;1.90;1.80;;;1.80;1.00;;;;;;5100623;28;20082;-73
2024/01/22 00:53:19;;;;;;;2.00;1.80;;;1.80;1.00;;;;;;5101435;28;21022;-73
2024/01/22 00:55:44;;;;;;;2.37;2.20;;;1.80;1.00;;;;;;5102768;28;20039;-73
2024/01/22 00:58:10;;;;;;;2.50;2.30;;;1.80;99.90;;;;;;5100899;28;20081;-73
2024/01/22 01:00:36;;;;;;;2.23;2.13;;;1.80;99.90;;;;;;5083886;28;20080;-73
2024/01/22 01:03:02;;;;;;;2.20;2.00;;;1.80;99.90;;;;;;5100019;28;20024;-73
2024/01/22 01:05:27;;;;;;;2.13;1.80;;;1.80;99.90;;;;;;5098661;28;20321;-73
2024/01/22 01:07:53;;;;;;;2.90;1.90;;;1.90;99.90;;;;;;5084219;28;20063;-73
2024/01/22 01:10:18;;;;;;;2.43;1.57;;;1.90;99.90;;;;;;5102699;28;20026;-73
2024/01/22 01:12:44;;;;;;;2.20;2.10;;;1.80;99.90;;;;;;5099169;28;20107;-73
2024/01/22 01:15:10;;;;;;;1.83;1.73;;;1.80;99.90;;;;;;5091400;28;20020;-74
2024/01/22 01:17:36;;;;;;;1.73;1.63;;;1.80;99.90;;;;;;5099713;28;20016;-73
2024/01/22 01:20:03;;;;;;;1.77;1.67;;;1.80;99.90;;;;;;5104201;28;20024;-74
2024/01/22 01:22:31;;;;;;;1.77;1.67;;;1.80;99.90;;;;;;5100713;28;20016;-74
2024/01/22 01:24:56;;;;;;;1.80;1.70;;;1.80;99.90;;;;;;5099748;28;20016;-73
2024/01/22 01:27:22;;;;;;;1.63;1.53;;;1.80;99.90;;;;;;5103864;28;20024;-74
2024/01/22 01:29:48;;;;;;;2.13;2.03;;;1.80;99.90;;;;;;5121594;27;20024;-73
2024/01/22 01:32:14;;;;;;;1.47;1.30;;;1.80;99.90;;;;;;5102935;28;20024;-74
2024/01/22 01:34:39;;;;;;;1.70;1.60;;;1.80;99.90;;;;;;5106150;28;20077;-73
2024/01/22 01:37:05;;;;;;;1.93;1.83;;;1.80;99.90;;;;;;5102519;28;20024;-74
2024/01/22 01:39:31;;;;;;;1.77;1.67;;;1.80;99.90;;;;;;5106379;28;20119;-74
2024/01/22 01:41:56;;;;;;;2.03;1.90;;;1.80;99.90;;;;;;5093282;28;20024;-73
2024/01/22 01:44:49;;;;;;;2.40;1.83;;;1.80;99.90;;;;;;5105332;28;20024;-74
2024/01/22 01:47:15;;;;;;;1.67;1.57;;;1.80;99.90;;;;;;5088212;28;20388;-74
2024/01/22 01:49:42;;;;;;;2.27;1.77;;;1.80;99.90;;;;;;5094500;28;20486;-73
2024/01/22 01:52:10;;;;;;;1.67;1.57;;;1.80;99.90;;;;;;5103869;28;20372;-73
2024/01/22 01:54:37;;;;;;;1.90;1.80;;;1.80;99.90;;;;;;5103596;28;20576;-73
2024/01/22 01:57:05;;;;;;;2.80;1.60;;;1.80;99.90;;;;;;5105749;28;20490;-73
2024/01/22 01:59:31;;;;;;;1.77;1.67;;;1.80;99.90;;;;;;5105216;28;20020;-73
2024/01/22 02:01:57;;;;;;;2.10;1.90;;;1.80;99.90;;;;;;5102191;28;20456;-73
2024/01/22 02:04:22;;;;;;;1.77;1.57;;;1.90;99.90;;;;;;5105832;28;20027;-73
2024/01/22 02:06:48;;;;;;;1.80;1.70;;;1.90;99.90;;;;;;5102097;28;20122;-73
2024/01/22 02:09:14;;;;;;;1.73;1.50;;;1.80;99.90;;;;;;5106735;28;20028;-73
2024/01/22 02:11:40;;;;;;;2.10;1.90;;;1.60;99.90;;;;;;5084178;28;20486;-73
2024/01/22 02:14:05;;;;;;;1.90;1.80;;;1.60;1.00;;;;;;5104606;28;20102;-73
2024/01/22 02:16:31;;;;;;;1.87;1.70;;;1.70;1.00;;;;;;5118799;27;20024;-73
2024/01/22 02:18:57;;;;;;;1.77;1.67;;;1.70;1.00;;;;;;5103851;28;20471;-73
2024/01/22 02:21:23;;;;;;;2.90;2.00;;;1.60;1.00;;;;;;5085332;28;20494;-73
2024/01/22 02:23:48;;;;;;;2.03;1.93;;;1.60;1.00;;;;;;5103010;28;20028;-73
2024/01/22 02:26:14;;;;;;;1.93;1.83;;;1.60;1.00;;;;;;5105204;28;20036;-73
2024/01/22 02:28:40;;;;;;;1.63;1.53;;;1.60;1.00;;;;;;5104379;28;20023;-74
2024/01/22 02:31:07;;;;;;;3.10;1.70;;;1.60;1.00;;;;;;5091866;28;20035;-73
2024/01/22 02:33:33;;;;;;;1.63;1.53;;;1.60;1.00;;;;;;5120678;27;20027;-73
2024/01/22 02:35:58;;;;;;;2.70;1.57;;;1.60;1.00;;;;;;5101362;28;20028;-73
2024/01/22 02:38:24;;;;;;;1.90;1.80;;;1.60;99.90;;;;;;5104784;28;20024;-73
2024/01/22 02:40:50;;;;;;;2.50;1.70;;;1.70;1.00;;;;;;5108074;28;20047;-74
2024/01/22 02:43:16;;;;;;;1.53;1.43;;;1.60;1.00;;;;;;5083516;28;20099;-74
2024/01/22 02:45:41;;;;;;;1.63;1.53;;;1.60;1.00;;;;;;5104099;28;20160;-74
2024/01/22 02:48:07;;;;;;;1.53;1.43;;;1.60;1.00;;;;;;5102396;28;20498;-73
2024/01/22 02:50:33;;;;;;;1.80;1.70;;;1.50;1.00;;;;;;5086892;28;20028;-73
2024/01/22 02:52:58;;;;;;;1.60;1.50;;;1.50;1.00;;;;;;5102897;28;20027;-74
2024/01/22 02:55:24;;;;;;;1.67;1.57;;;1.40;1.00;;;;;;5103225;28;20028;-73
2024/01/22 02:57:50;;;;;;;1.33;1.33;;;1.40;1.00;;;;;;5104821;28;20020;-73
2024/01/22 03:00:16;;;;;;;1.80;1.70;;;1.40;1.00;;;;;;5083714;28;20402;-74
2024/01/22 03:02:42;;;;;;;2.40;1.43;;;1.30;1.00;;;;;;5103987;28;20020;-73
2024/01/22 03:05:08;;;;;;;1.57;1.20;;;1.30;1.00;;;;;;5101272;28;20024;-74
2024/01/22 03:07:33;;;;;;;2.10;1.40;;;1.40;1.00;;;;;;5105351;28;20031;-74
2024/01/22 03:09:59;;;;;;;1.50;1.40;;;1.40;1.00;;;;;;5104551;28;20031;-74
2024/01/22 03:12:25;;;;;;;1.57;1.47;;;1.50;1.00;;;;;;5105852;28;20019;-73
2024/01/22 03:14:51;;;;;;;1.40;1.30;;;1.50;1.00;;;;;;5101196;28;20080;-74
2024/01/22 03:17:16;;;;;;;1.10;1.10;;;1.40;1.00;;;;;;5103353;28;20028;-74
2024/01/22 03:19:42;;;;;;;2.77;1.80;;;1.40;99.90;;;;;;5101743;28;20020;-74
2024/01/22 03:22:08;;;;;;;3.23;1.80;;;1.50;99.90;;;;;;5093113;28;20447;-74
2024/01/22 03:24:33;;;;;;;2.33;1.30;;;1.50;99.90;;;;;;5104716;28;20054;-73
2024/01/22 03:26:59;;;;;;;1.70;1.60;;;1.50;99.90;;;;;;5103913;28;20107;-74
2024/01/22 03:29:25;;;;;;;1.37;1.27;;;1.50;99.90;;;;;;5118392;27;20032;-74
2024/01/22 03:31:50;;;;;;;1.50;1.40;;;1.50;99.90;;;;;;5086087;28;20024;-74
2024/01/22 03:34:16;;;;;;;1.30;1.20;;;1.50;1.00;;;;;;5091053;28;20020;-73
2024/01/22 03:36:42;;;;;;;2.27;1.40;;;1.50;1.00;;;;;;5084875;28;20027;-73
2024/01/22 03:39:07;;;;;;;3.90;1.40;;;1.40;1.00;;;;;;5104025;28;20050;-73
2024/01/22 03:41:33;;;;;;;1.57;1.47;;;1.50;99.90;;;;;;5100033;28;20360;-74
2024/01/22 03:43:59;;;;;;;1.53;1.30;;;1.40;99.90;;;;;;5119684;27;20037;-73
2024/01/22 03:46:25;;;;;;;1.60;1.50;;;1.40;99.90;;;;;;5081897;28;20066;-74
2024/01/22 03:48:50;;;;;;;1.70;1.60;;;1.40;99.90;;;;;;5103199;28;20028;-74
2024/01/22 03:51:16;;;;;;;1.30;1.20;;;1.40;99.90;;;;;;5081925;28;20063;-74
2024/01/22 03:53:42;;;;;;;1.70;1.60;;;1.40;99.90;;;;;;5102508;28;20054;-73
2024/01/22 03:56:08;;;;;;;2.77;1.70;;;1.40;99.90;;;;;;5103374;28;20023;-74
2024/01/22 03:58:34;;;;;;;1.47;1.37;;;1.40;99.90;;;;;;5083224;28;20065;-74
2024/01/22 04:01:01;;;;;;;1.20;1.10;;;1.40;1.00;;;;;;5091314;28;20456;-73
2024/01/22 04:03:26;;;;;;;1.60;1.50;;;1.50;1.00;;;;;;5102225;28;20106;-74
2024/01/22 04:05:52;;;;;;;1.80;1.70;;;1.50;99.90;;;;;;5100667;28;20111;-74
2024/01/22 04:08:18;;;;;;;1.50;1.40;;;1.50;99.90;;;;;;5102613;28;20031;-74
2024/01/22 04:10:44;;;;;;;1.40;1.30;;;1.60;99.90;;;;;;5103138;28;20027;-74
2024/01/22 04:13:09;;;;;;;1.40;1.30;;;1.50;99.90;;;;;;5103269;28;20026;-74
2024/01/22 04:15:35;;;;;;;1.70;1.60;;;1.40;1.00;;;;;;5099333;28;20491;-73
2024/01/22 04:18:01;;;;;;;1.40;1.30;;;1.40;1.00;;;;;;5103098;28;20028;-74
2024/01/22 04:20:27;;;;;;;3.10;1.50;;;1.40;99.90;;;;;;5115613;27;20032;-74
2024/01/22 04:22:52;;;;;;;1.90;1.60;;;1.40;99.90;;;;;;5102436;28;20015;-74
2024/01/22 04:25:18;;;;;;;1.60;1.50;;;1.50;99.90;;;;;;5100333;28;20059;-74
2024/01/22 04:27:44;;;;;;;1.30;1.20;;;1.50;99.90;;;;;;5103151;28;20042;-74
2024/01/22 04:30:10;;;;;;;1.37;1.27;;;1.40;1.00;;;;;;5083129;28;20031;-74
2024/01/22 04:32:36;;;;;;;2.03;1.50;;;1.30;1.00;;;;;;5117130;27;20020;-74
2024/01/22 04:35:04;;;;;;;1.97;1.77;;;1.30;1.00;;;;;;5103099;28;20016;-74
2024/01/22 04:37:30;;;;;;;2.30;1.33;;;1.40;1.00;;;;;;5081795;28;20020;-74
2024/01/22 04:40:07;;;;;;;1.93;1.40;;;1.40;1.00;;;;;;5106085;27;20054;-74
2024/01/22 04:42:33;;;;;;;1.40;1.30;;;1.40;99.90;;;;;;5061846;28;20103;-74
2024/01/22 04:44:59;;;;;;;1.20;1.10;;;1.40;99.90;;;;;;5071253;28;20042;-74
2024/01/22 04:47:25;;;;;;;5.40;1.30;;;1.50;99.90;;;;;;5080407;28;20021;-73
2024/01/22 04:49:51;;;;;;;2.17;1.30;;;1.50;99.90;;;;;;5080353;28;20024;-73
2024/01/22 04:52:16;;;;;;;3.33;1.47;;;1.50;99.90;;;;;;5096688;28;20503;-73
2024/01/22 04:54:42;;;;;;;1.40;1.30;;;1.40;1.00;;;;;;5079895;28;20029;-73
2024/01/22 04:57:08;;;;;;;1.50;1.40;;;1.40;99.90;;;;;;5082593;28;20032;-73
2024/01/22 04:59:34;;;;;;;1.70;1.60;;;1.40;99.90;;;;;;5064963;28;20429;-73
2024/01/22 05:01:59;;;;;;;2.20;1.30;;;1.50;99.90;;;;;;5073677;28;20050;-73
2024/01/22 05:04:25;;;;;;;2.53;1.80;;;1.50;1.00;;;;;;5064865;28;20120;-73
2024/01/22 05:06:51;;;;;;;3.20;1.80;;;1.40;1.00;;;;;;5068384;28;20502;-73
2024/01/22 05:09:16;;;;;;;2.37;1.60;;;1.20;1.00;;;;;;5071429;28;20548;-73
2024/01/22 05:11:42;;;;;;;2.13;1.37;;;1.10;1.00;;;;;;5083103;28;20035;-73
2024/01/22 05:14:08;;;;;;;2.07;1.30;;;1.10;1.00;;;;;;5069639;28;20028;-74
2024/01/22 05:16:33;;;;;;;1.40;1.30;;;1.20;1.00;;;;;;5085107;28;20569;-74
2024/01/22 05:18:59;;;;;;;2.03;1.20;;;1.20;1.00;;;;;;5084155;28;20054;-73
2024/01/22 05:21:25;;;;;;;2.03;1.50;;;1.20;1.00;;;;;;5084622;28;20020;-73
2024/01/22 05:23:50;;;;;;;1.50;1.40;;;1.20;1.00;;;;;;5084746;28;20031;-73
2024/01/22 05:26:16;;;;;;;1.70;1.50;;;1.20;1.00;;;;;;5087742;28;20107;-73
2024/01/22 05:28:42;;;;;;;2.30;1.37;;;1.30;1.00;;;;;;5085142;28;20031;-73
2024/01/22 05:31:08;;;;;;;2.63;1.23;;;1.30;1.00;;;;;;5064954;28;20024;-73
2024/01/22 05:33:33;;;;;;;5.33;1.53;;;1.30;1.00;;;;;;5085715;28;20022;-73
2024/01/22 05:35:59;;;;;;;4.60;1.80;;;1.30;1.00;;;;;;5082330;28;20537;-73
2024/01/22 05:38:25;;;;;;;5.43;1.93;;;1.40;1.00;;;;;;5086092;28;20233;-73
2024/01/22 05:40:51;;;;;;;1.40;1.30;;;1.40;1.00;;;;;;5106152;28;20047;-73
2024/01/22 05:43:16;;;;;;;2.43;1.20;;;1.30;1.00;;;;;;5105779;28;20024;-73
2024/01/22 05:45:42;;;;;;;1.70;1.60;;;1.30;1.00;;;;;;5084817;28;20039;-73
2024/01/22 05:48:09;;;;;;;2.20;1.47;;;1.30;1.00;;;;;;5086864;28;20496;-74
2024/01/22 05:50:35;;;;;;;4.17;1.40;;;1.30;1.00;;;;;;5085408;28;20027;-73
2024/01/22 05:53:01;;;;;;;6.87;1.70;;;1.40;99.90;;;;;;5104369;28;20016;-73
2024/01/22 05:55:28;;;;;;;1.53;1.43;;;1.30;1.00;;;;;;5104250;28;20535;-73
2024/01/22 05:57:54;;;;;;;2.70;1.33;;;1.30;99.90;;;;;;5119057;27;20024;-73
2024/01/22 06:00:20;;;;;;;1.70;1.60;;;1.40;99.90;;;;;;5120734;27;20452;-73
2024/01/22 06:02:45;;;;;;;1.43;1.33;;;1.40;99.90;;;;;;5092500;28;20057;-74
2024/01/22 06:05:12;;;;;;;1.83;1.73;;;1.40;1.00;;;;;;5105578;28;20023;-72
2024/01/22 06:07:38;;;;;;;4.37;1.50;;;1.40;1.00;;;;;;5101810;28;20063;-73
2024/01/22 06:10:06;;;;;;;1.77;1.67;;;1.40;1.00;;;;;;5106702;28;20073;-73
2024/01/22 06:12:33;;;;;;;1.60;1.50;;;1.30;1.00;;;;;;5083682;28;20059;-73
2024/01/22 06:15:00;;;;;;;4.67;1.40;;;1.20;1.00;;;;;;5104349;28;20023;-73
2024/01/22 06:17:30;;;;;;;2.57;1.60;;;1.30;1.00;;;;;;5119404;27;20032;-74
2024/01/22 06:20:01;;;;;;;6.40;1.60;;;1.20;1.00;;;;;;5092824;28;20036;-73
2024/01/22 06:22:27;;;;;;;3.20;1.70;;;1.20;1.00;;;;;;5087223;28;20030;-73
2024/01/22 06:24:53;;;;;;;4.03;1.73;;;1.30;1.00;;;;;;5101799;28;20039;-73
2024/01/22 06:27:18;;;;;;;11.50;2.60;;;1.30;99.90;;;;;;5092355;28;20085;-74
2024/01/22 06:29:44;;;;;;;4.90;2.03;;;1.40;99.90;;;;;;5105156;28;20020;-73
2024/01/22 06:32:10;;;;;;;5.33;3.10;;;1.40;1.00;;;;;;5102501;28;20112;-73
2024/01/22 06:34:36;;;;;;;7.97;2.30;;;1.20;1.00;;;;;;5105103;28;20024;-73
2024/01/22 06:37:04;;;;;;;9.33;2.50;;;1.10;1.00;;;;;;5103775;28;20016;-73
2024/01/22 06:39:30;;;;;;;3.83;2.83;;;1.10;1.00;;;;;;5075607;28;20041;-73
2024/01/22 06:41:56;;;;;;;8.13;2.20;;;1.00;1.00;;;;;;5084369;28;20032;-73
2024/01/22 06:44:22;;;;;;;2.57;2.07;;;1.00;1.00;;;;;;5083654;28;20040;-74
2024/01/22 06:46:47;;;;;;;7.30;3.83;;;1.00;1.00;;;;;;5084397;28;20024;-74
2024/01/22 06:49:13;;;;;;;6.23;3.20;;;1.00;1.00;;;;;;5080540;28;20032;-73
2024/01/22 06:51:39;;;;;;;3.73;2.33;;;0.90;1.00;;;;;;5084405;28;20119;-73
2024/01/22 06:54:05;;;;;;;7.13;3.03;;;1.00;1.00;;;;;;5079971;28;20103;-74
2024/01/22 06:56:31;;;;;;;10.40;3.17;;;0.90;1.00;;;;;;5082253;28;20028;-74
2024/01/22 06:58:57;;;;;;;9.93;3.10;;;0.90;1.00;;;;;;5083694;28;20047;-74
2024/01/22 07:01:22;;;;;;;2.63;2.40;;;1.00;1.00;;;;;;5071509;28;20411;-74
2024/01/22 07:03:48;;;;;;;5.53;3.47;;;1.10;1.00;;;;;;5083090;28;20032;-73
2024/01/22 07:06:14;;;;;;;4.93;3.50;;;1.10;1.00;;;;;;5081737;28;20028;-74
2024/01/22 07:08:39;;;;;;;14.53;5.07;;;1.10;1.00;;;;;;5066233;28;20028;-73
2024/01/22 07:11:05;;;;;;;11.23;5.53;;;0.90;20.40;;;;;;5087473;28;20766;-73
2024/01/22 07:13:32;;;;;;;17.07;5.20;;;0.80;99.90;;;;;;5082666;28;20107;-74
2024/01/22 07:15:59;;;;;;;14.43;5.17;;;0.80;99.90;;;;;;5066968;28;20459;-74
2024/01/22 07:18:24;;;;;;;30.50;5.43;;;0.70;99.90;;;;;;5082935;28;20439;-74
2024/01/22 07:20:50;;;;;;;21.13;4.70;;;0.70;99.90;;;;;;5080755;28;20028;-73
2024/01/22 07:23:16;;;;;;;16.40;3.67;;;0.70;99.90;;;;;;5084031;28;20040;-74
2024/01/22 07:25:42;;;;;;;15.30;3.77;;;0.70;29.60;;;;;;5065117;28;20448;-74
2024/01/22 07:28:08;;;;;;;24.00;4.77;;;0.70;99.90;;;;;;5071096;28;20065;-73
2024/01/22 07:30:36;;;;;;;29.63;5.20;;;0.70;99.90;;;;;;5065437;28;20629;-74
2024/01/22 07:33:03;;;;;;;31.90;6.33;;;0.70;99.90;;;;;;5081352;28;20024;-74
2024/01/22 07:35:29;;;;;;;43.77;15.77;;;0.70;99.90;;;;;;5082133;28;20081;-74
2024/01/22 07:37:55;;;;;;;28.23;11.60;;;0.60;99.90;;;;;;5082009;28;20025;-74
2024/01/22 07:40:21;;;;;;;17.70;6.07;;;0.60;99.90;;;;;;5084041;28;20101;-74
2024/01/22 07:42:48;;;;;;;11.13;5.73;;;0.70;73.30;;;;;;5091843;28;20032;-74
2024/01/22 07:45:14;;;;;;;11.60;5.47;;;0.80;99.90;;;;;;5092159;28;20115;-74
2024/01/22 07:47:40;;;;;;;17.37;6.13;;;0.90;99.90;;;;;;5091691;28;20339;-74
2024/01/22 07:50:06;;;;;;;26.27;7.97;;;1.00;99.90;;;;;;5092090;28;20112;-73
2024/01/22 07:52:33;;;;;;;19.07;7.20;;;1.00;99.90;;;;;;5103622;28;20024;-74
2024/01/22 07:55:00;;;;;;;16.67;7.43;;;1.00;70.00;;;;;;5107405;28;20115;-73
2024/01/22 07:57:25;;;;;;;17.27;6.87;;;1.00;99.90;;;;;;5091512;28;20101;-74
2024/01/22 07:59:51;;;;;;;16.73;6.07;;;1.10;99.90;;;;;;5073567;28;20117;-73
2024/01/22 08:02:17;;;;;;;13.57;5.53;;;1.20;99.90;;;;;;5091676;28;20024;-73
2024/01/22 08:04:42;;;;;;;10.33;4.83;;;1.30;99.90;;;;;;5091642;28;20049;-75
2024/01/22 08:07:08;;;;;;;13.97;5.20;;;1.30;99.90;;;;;;5091427;28;20024;-73
2024/01/22 08:09:34;;;;;;;21.63;5.57;;;1.40;99.90;;;;;;5091344;28;20259;-73
2024/01/22 08:12:00;;;;;;;14.83;4.80;;;1.40;99.90;;;;;;5073014;28;20036;-74
2024/01/22 08:14:25;;;;;;;15.00;5.00;;;1.50;99.90;;;;;;5091289;28;20024;-75
2024/01/22 08:16:51;;;;;;;22.50;6.87;;;1.60;99.90;;;;;;5091375;28;20045;-74
2024/01/22 08:19:17;;;;;;;17.87;7.23;;;1.60;75.70;;;;;;5073190;28;20262;-74
2024/01/22 08:21:43;;;;;;;15.60;7.10;;;1.70;51.30;;;;;;5091363;28;20103;-74
2024/01/22 08:24:10;;;;;;;17.80;7.10;;;1.70;25.50;;;;;;5087429;28;20052;-74
2024/01/22 08:26:35;;;;;;;8.83;5.90;;;1.80;68.00;;;;;;5090993;28;20381;-74
2024/01/22 08:29:01;;;;;;;12.07;6.40;;;1.90;9.60;;;;;;5091058;28;20028;-73
2024/01/22 08:31:27;;;;;;;20.07;12.10;;;1.90;1.00;;;;;;5091135;28;20081;-74
2024/01/22 08:33:54;;;;;;;19.13;9.10;;;1.90;14.10;;;;;;5091059;28;20211;-74
2024/01/22 08:36:20;;;;;;;15.83;8.13;;;2.00;5.00;;;;;;5090948;28;20024;-74
2024/01/22 08:38:46;;;;;;;10.13;6.27;;;2.10;1.00;;;;;;5075237;28;20047;-74
2024/01/22 08:41:12;;;;;;;10.50;5.37;;;2.10;14.50;;;;;;5100623;28;20038;-73
2024/01/22 08:43:37;;;;;;;7.47;4.30;;;2.20;1.00;;;;;;5101990;28;20122;-73
2024/01/22 08:46:03;;;;;;;6.57;4.20;;;2.20;1.00;;;;;;5099766;28;20057;-73
2024/01/22 08:48:30;;;;;;;5.33;4.37;;;2.30;1.00;;;;;;5102533;28;20073;-74
2024/01/22 08:50:57;;;;;;;9.73;4.03;;;2.30;1.00;;;;;;5080815;28;20028;-73
2024/01/22 08:53:22;;;;;;;11.47;5.50;;;2.30;1.00;;;;;;5081686;28;20020;-73
2024/01/22 08:55:48;;;;;;;7.27;5.50;;;2.40;1.00;;;;;;5088547;28;20062;-73
2024/01/22 08:58:15;;;;;;;7.63;5.53;;;2.50;1.00;;;;;;5099870;28;20142;-74
2024/01/22 09:00:41;;;;;;;9.20;6.13;;;2.60;1.00;;;;;;5101408;28;20379;-73
2024/01/22 09:03:07;;;;;;;9.83;6.57;;;2.60;1.00;;;;;;5100615;28;20016;-74
2024/01/22 09:05:33;;;;;;;13.17;6.83;;;2.60;99.90;;;;;;5101717;28;20024;-74
2024/01/22 09:07:59;;;;;;;10.03;6.90;;;2.70;99.90;;;;;;5084488;28;20164;-74
2024/01/22 09:10:26;;;;;;;6.90;5.53;;;2.70;99.90;;;;;;5084283;28;20114;-73
2024/01/22 09:12:55;;;;;;;7.83;5.73;;;2.80;99.90;;;;;;5101841;28;20537;-74
2024/01/22 09:15:21;;;;;;;6.73;6.13;;;2.80;99.90;;;;;;5098853;28;20566;-74
2024/01/22 09:17:47;;;;;;;8.37;5.70;;;2.90;99.90;;;;;;5101616;28;20107;-73
2024/01/22 09:20:13;;;;;;;8.47;5.57;;;2.90;1.00;;;;;;5102155;28;20015;-73
2024/01/22 09:22:39;;;;;;;5.10;4.63;;;3.10;99.90;;;;;;5099375;28;20177;-73
2024/01/22 09:25:05;;;;;;;5.70;4.93;;;3.10;99.90;;;;;;5101701;28;20522;-73
2024/01/22 09:27:31;;;;;;;7.10;5.40;;;3.20;99.90;;;;;;5101544;28;20021;-73
2024/01/22 09:29:58;;;;;;;9.10;5.70;;;3.20;99.90;;;;;;5100666;28;20028;-73
2024/01/22 09:32:25;;;;;;;5.37;4.90;;;3.20;99.90;;;;;;5082478;28;20479;-73
2024/01/22 09:34:51;;;;;;;9.07;5.77;;;3.20;99.90;;;;;;5081371;28;20383;-73
2024/01/22 09:37:17;;;;;;;7.47;5.17;;;3.20;1.00;;;;;;5101508;28;20015;-73
2024/01/22 09:39:44;;;;;;;6.70;5.40;;;3.30;1.00;;;;;;5101819;28;20698;-73
2024/01/22 09:42:14;;;;;;;6.93;5.50;;;3.30;99.90;;;;;;5102259;28;20161;-73
2024/01/22 09:44:44;;;;;;;12.20;8.20;;;3.40;99.90;;;;;;5097971;28;20472;-73
2024/01/22 09:47:10;;;;;;;20.33;12.93;;;3.50;99.90;;;;;;5100728;28;20100;-73
2024/01/22 09:49:36;;;;;;;17.33;12.82;;;3.60;1.00;;;;;;5103958;28;20483;-73
2024/01/22 09:52:03;;;;;;;15.53;11.53;;;3.60;1.00;;;;;;5085468;28;20024;-74
2024/01/22 09:54:30;;;;;;;16.55;9.73;;;3.70;1.00;;;;;;5104810;28;20467;-73
2024/01/22 09:56:57;;;;;;;12.52;9.90;;;3.80;1.00;;;;;;5105941;28;20031;-73
2024/01/22 09:59:28;;;;;;;15.37;8.90;;;4.00;1.00;;;;;;5084150;28;20032;-73
2024/01/22 10:01:55;;;;;;;14.43;8.80;;;4.00;1.00;;;;;;5102763;28;20097;-73
2024/01/22 10:04:23;;;;;;;9.35;8.35;;;4.00;1.00;;;;;;5086423;28;20053;-73
2024/01/22 10:06:50;;;;;;;20.05;9.90;;;4.00;1.00;;;;;;5103699;28;20024;-73
2024/01/22 10:09:17;;;;;;;16.02;9.00;;;4.10;1.00;;;;;;5103862;28;20073;-73
2024/01/22 10:11:43;;;;;;;9.50;7.57;;;4.20;1.00;;;;;;5104362;28;20117;-73
2024/01/22 10:14:10;;;;;;;10.60;8.02;;;4.30;1.00;;;;;;5102541;28;20108;-73
2024/01/22 10:16:39;;;;;;;30.08;16.65;;;4.40;99.90;;;;;;5086738;28;20047;-73
2024/01/22 10:19:07;;;;;;;16.77;11.73;;;4.50;99.90;;;;;;5101898;28;20024;-73
2024/01/22 10:21:37;;;;;;;18.40;13.10;;;4.50;1.00;;;;;;5120625;27;20051;-73
2024/01/22 10:24:04;;;;;;;71.25;43.67;;;4.50;99.90;;;;;;5085086;28;20054;-73
2024/01/22 10:26:30;;;;;;;19.65;12.73;;;4.60;99.90;;;;;;5105576;28;20471;-73
2024/01/22 10:29:13;;;;;;;17.25;10.50;;;4.60;1.00;;;;;;5118505;27;20122;-73
2024/01/22 10:31:56;;;;;;;15.73;10.73;;;4.70;1.00;;;;;;5102548;28;20028;-73
2024/01/22 10:34:29;;;;;;;17.63;11.35;;;4.80;1.00;;;;;;5101437;28;20507;-73
2024/01/22 10:37:09;;;;;;;17.98;11.10;;;4.70;7.20;;;;;;5104133;28;20023;-73
2024/01/22 10:39:39;;;;;;;17.52;11.23;;;4.70;1.00;;;;;;5105001;28;20152;-73
2024/01/22 10:42:16;;;;;;;12.88;10.20;;;4.60;1.00;;;;;;5101376;28;20028;-73
2024/01/22 10:44:50;;;;;;;16.38;10.55;;;4.70;13.00;;;;;;5103021;28;20031;-73
2024/01/22 10:47:16;;;;;;;12.88;10.48;;;4.70;1.00;;;;;;5120575;27;20478;-73
2024/01/22 10:49:43;;;;;;;20.88;11.25;;;4.70;1.00;;;;;;5101143;28;20099;-73
2024/01/22 10:52:09;;;;;;;18.95;11.15;;;4.70;28.60;;;;;;5104399;28;20072;-73
2024/01/22 10:54:36;;;;;;;17.02;11.25;;;4.70;29.30;;;;;;5101833;28;20028;-73
2024/01/22 10:57:15;;;;;;;17.98;11.20;;;4.70;44.10;;;;;;5121586;27;20027;-73
2024/01/22 10:59:48;;;;;;;20.55;11.57;;;4.80;1.00;;;;;;5103775;28;20128;-73
2024/01/22 11:02:26;;;;;;;29.73;17.92;;;4.80;1.00;;;;;;5101539;28;20024;-74
2024/01/22 11:05:04;;;;;;;17.23;13.10;;;4.80;1.00;;;;;;5102077;28;20032;-73
2024/01/22 11:07:32;;;;;;;18.33;12.55;;;4.80;1.00;;;;;;5102877;28;20081;-73
2024/01/22 11:10:01;;;;;;;13.93;10.52;;;4.90;1.00;;;;;;5083330;28;20027;-73
2024/01/22 11:12:33;;;;;;;16.15;10.40;;;4.90;1.00;;;;;;5118227;27;20043;-73
2024/01/22 11:14:59;;;;;;;16.67;10.50;;;5.00;1.00;;;;;;5103792;28;20046;-73
2024/01/22 11:17:25;;;;;;;13.43;11.10;;;5.00;1.00;;;;;;5100904;28;20034;-73
2024/01/22 11:20:11;;;;;;;12.02;9.07;;;5.10;1.00;;;;;;5104430;28;20023;-73
2024/01/22 11:22:37;;;;;;;12.50;9.88;;;5.10;99.90;;;;;;5084909;28;20417;-73
2024/01/22 11:25:09;;;;;;;11.98;9.82;;;5.20;99.90;;;;;;5101268;28;20031;-73
2024/01/22 11:27:39;;;;;;;12.15;9.65;;;5.30;99.90;;;;;;5103798;28;20047;-73
2024/01/22 11:30:23;;;;;;;11.45;8.45;;;5.30;99.90;;;;;;5102943;28;20030;-73
2024/01/22 11:32:49;;;;;;;11.75;8.90;;;5.40;99.90;;;;;;5119958;27;20031;-73
2024/01/22 11:35:37;;;;;;;10.60;9.05;;;5.40;99.90;;;;;;5100561;28;20479;-73
2024/01/22 11:38:07;;;;;;;10.15;8.10;;;5.40;99.90;;;;;;5100204;28;20093;-73
2024/01/22 11:40:47;;;;;;;11.73;8.02;;;5.50;99.90;;;;;;5065295;28;20082;-74
2024/01/22 11:43:19;;;;;;;14.73;8.27;;;5.50;99.90;;;;;;5080561;28;20021;-73
2024/01/22 11:45:45;;;;;;;10.73;7.88;;;5.60;99.90;;;;;;5061557;28;20031;-73
2024/01/22 11:48:19;;;;;;;18.20;7.93;;;5.60;99.90;;;;;;5083039;28;20442;-74
2024/01/22 11:51:05;;;;;;;11.95;8.13;;;5.70;99.90;;;;;;5081413;28;20024;-73
2024/01/22 11:53:31;;;;;;;10.27;8.25;;;5.70;99.90;;;;;;5080122;28;20089;-73
2024/01/22 11:56:04;;;;;;;13.98;8.30;;;5.80;99.90;;;;;;5082697;28;20020;-73
2024/01/22 11:58:31;;;;;;;14.82;8.38;;;5.80;99.90;;;;;;5083213;28;20035;-73
2024/01/22 12:01:00;;;;;;;10.45;7.93;;;5.70;99.90;;;;;;5082492;28;20059;-73
2024/01/22 12:03:27;;;;;;;13.48;9.05;;;5.70;99.90;;;;;;5061463;28;20357;-73
2024/01/22 12:06:00;;;;;;;10.93;8.15;;;5.70;99.90;;;;;;5065315;28;20029;-73
2024/01/22 12:08:26;;;;;;;9.23;7.97;;;5.70;99.90;;;;;;5071582;28;20496;-73
2024/01/22 12:10:56;;;;;;;16.00;8.98;;;5.80;99.90;;;;;;5082560;28;20559;-73
2024/01/22 12:13:23;;;;;;;10.02;8.50;;;5.80;99.90;;;;;;5080043;28;20028;-73
2024/01/22 12:15:55;;;;;;;12.85;7.93;;;5.80;99.90;;;;;;5082340;28;20020;-73
2024/01/22 12:18:24;;;;;;;11.15;7.35;;;5.90;99.90;;;;;;5079439;28;20043;-73
2024/01/22 12:20:51;;;;;;;11.30;7.50;;;6.00;99.90;;;;;;5081855;28;20032;-73
2024/01/22 12:23:34;;;;;;;17.83;8.50;;;6.10;99.90;;;;;;5080708;28;20030;-73
2024/01/22 12:26:01;;;;;;;16.30;9.13;;;6.10;99.90;;;;;;5082666;28;20028;-73
2024/01/22 12:28:27;;;;;;;11.52;8.27;;;6.20;99.90;;;;;;5070376;28;20032;-73
2024/01/22 12:31:04;;;;;;;9.70;8.38;;;6.30;99.90;;;;;;5081731;28;20102;-73
2024/01/22 12:33:31;;;;;;;14.68;8.38;;;6.30;99.90;;;;;;5081802;28;20051;-73
2024/01/22 12:36:14;;;;;;;8.85;7.78;;;6.30;99.90;;;;;;5079305;28;20021;-73
2024/01/22 12:38:53;;;;;;;8.68;7.88;;;6.40;99.90;;;;;;5082593;28;20500;-73
2024/01/22 12:41:23;;;;;;;10.63;7.18;;;6.40;99.90;;;;;;5099194;28;20505;-73
2024/01/22 12:43:49;;;;;;;9.25;8.35;;;6.50;99.90;;;;;;5099059;28;20059;-73
2024/01/22 12:46:19;;;;;;;14.38;8.48;;;6.60;99.90;;;;;;5091129;28;20027;-74
2024/01/22 12:48:45;;;;;;;14.50;7.85;;;6.60;99.90;;;;;;5100556;28;20027;-73
2024/01/22 12:51:13;;;;;;;13.80;9.30;;;6.60;99.90;;;;;;5101618;28;20028;-73
2024/01/22 12:53:40;;;;;;;14.73;10.52;;;6.70;99.90;;;;;;5089414;28;20499;-72
2024/01/22 12:56:06;;;;;;;10.40;7.97;;;6.70;99.90;;;;;;5082540;28;20042;-73
2024/01/22 12:58:38;;;;;;;11.68;7.30;;;6.70;99.90;;;;;;5098911;28;20048;-74